Time;durP1;ratioP1;P1;durP2;ratioP2;P2;SDS_P1;SDS_P2;PMS_P1;PMS_P2;Temp;Humidity;BMP_temperature;BMP_pressure;BME280_temperature;BME280_humidity;BME280_pressure;Samples;Min_cycle;Max_cycle;Signal;HPM_P1;HPM_P2
2021/08/23 00:00:48;;;;;;;5.30;3.80;;;;;;;12.82;75.47;99268.98;111276;1201;60857;-21
2021/08/23 00:03:17;;;;;;;5.80;3.50;;;;;;;12.53;76.33;99264.73;111291;1201;75555;-23
2021/08/23 00:05:45;;;;;;;3.10;2.10;;;;;;;12.33;77.11;99268.61;111223;1201;75537;-23
2021/08/23 00:08:29;;;;;;;6.30;3.30;;;;;;;12.87;76.75;99266.42;111223;1201;73089;-22
2021/08/23 00:11:00;;;;;;;4.70;3.40;;;;;;;13.40;75.15;99269.88;111261;1202;61531;-23
2021/08/23 00:13:28;;;;;;;6.20;3.40;;;;;;;13.41;74.44;99272.06;111324;1202;60857;-23
2021/08/23 00:16:01;;;;;;;7.60;3.80;;;;;;;13.20;74.35;99274.02;111198;1202;75091;-23
2021/08/23 00:18:31;;;;;;;4.90;3.20;;;;;;;12.93;75.22;99277.61;111302;1201;75301;-23
2021/08/23 00:21:10;;;;;;;5.90;4.10;;;;;;;12.64;76.14;99275.59;111190;1201;72551;-23
2021/08/23 00:24:06;;;;;;;2.90;2.30;;;;;;;12.39;76.97;99270.90;111089;1201;64567;-23
2021/08/23 00:26:36;;;;;;;7.70;2.80;;;;;;;13.02;75.51;99269.83;111295;1201;60893;-20
2021/08/23 00:29:06;;;;;;;3.70;2.70;;;;;;;13.54;73.94;99269.13;111306;1201;74910;-22
2021/08/23 00:31:34;;;;;;;3.10;2.30;;;;;;;13.51;72.55;99269.23;111325;1202;75690;-22
2021/08/23 00:34:03;;;;;;;4.10;2.90;;;;;;;13.18;72.41;99267.41;111084;1202;73781;-22
2021/08/23 00:36:31;;;;;;;9.70;3.60;;;;;;;12.84;74.34;99272.48;111146;1202;60949;-22
2021/08/23 00:39:00;;;;;;;4.10;3.20;;;;;;;12.52;75.36;99273.13;111316;1202;60934;-22
2021/08/23 00:41:31;;;;;;;5.90;2.60;;;;;;;12.24;75.84;99276.38;111313;1201;74948;-22
2021/08/23 00:44:00;;;;;;;3.70;2.20;;;;;;;12.61;75.68;99272.36;111333;1202;76033;-22
2021/08/23 00:46:28;;;;;;;5.20;3.10;;;;;;;13.06;73.64;99269.17;111050;1200;73987;-22
2021/08/23 00:48:59;;;;;;;3.90;2.50;;;;;;;13.04;73.82;99267.81;111172;1202;60781;-22
2021/08/23 00:51:27;;;;;;;4.30;2.70;;;;;;;12.76;74.39;99268.95;111182;1201;61339;-22
2021/08/23 00:53:56;;;;;;;5.80;3.50;;;;;;;12.44;75.08;99271.67;111343;1201;74980;-22
2021/08/23 00:56:25;;;;;;;3.40;2.60;;;;;;;12.17;75.06;99271.01;111227;1199;74261;-21
2021/08/23 00:58:55;;;;;;;2.80;1.90;;;;;;;11.94;75.40;99270.14;111125;1201;74442;-22
2021/08/23 01:01:55;;;;;;;2.50;1.60;;;;;;;12.31;74.03;99271.56;111304;1202;62496;-22
2021/08/23 01:04:52;;;;;;;3.30;2.20;;;;;;;12.71;71.89;99275.73;111269;1201;61717;-21
2021/08/23 01:07:22;;;;;;;4.50;1.70;;;;;;;12.49;72.31;99275.81;111191;1196;74231;-22
2021/08/23 01:10:11;;;;;;;2.60;2.20;;;;;;;12.04;73.52;99272.08;111128;1202;76868;-22
2021/08/23 01:12:39;;;;;;;1.90;1.70;;;;;;;11.63;73.99;99276.02;111128;1202;71046;-20
2021/08/23 01:15:08;;;;;;;3.30;2.20;;;;;;;11.18;74.87;99275.95;111254;1201;61773;-22
2021/08/23 01:17:36;;;;;;;4.40;1.60;;;;;;;10.89;75.98;99280.17;111301;1202;61624;-23
2021/08/23 01:20:05;;;;;;;3.50;1.80;;;;;;;11.25;76.05;99276.95;111166;1202;74284;-24
2021/08/23 01:22:42;;;;;;;3.00;2.30;;;;;;;11.72;74.98;99272.98;111076;1195;75440;-22
2021/08/23 01:25:11;;;;;;;3.70;2.00;;;;;;;11.56;75.57;99276.88;111065;1198;73024;-22
2021/08/23 01:27:41;;;;;;;2.30;1.80;;;;;;;11.31;75.26;99280.84;111116;1202;61522;-22
2021/08/23 01:30:11;;;;;;;2.10;1.90;;;;;;;11.04;75.96;99278.60;111154;1201;62192;-23
2021/08/23 01:32:39;;;;;;;4.40;2.00;;;;;;;10.79;76.29;99280.10;111165;1201;75326;-22
2021/08/23 01:35:08;;;;;;;4.50;1.80;;;;;;;10.52;77.26;99278.88;111159;1196;74647;-22
2021/08/23 01:37:36;;;;;;;2.10;1.60;;;;;;;10.88;76.69;99271.73;111290;1201;71401;-22
2021/08/23 01:40:05;;;;;;;2.30;1.50;;;;;;;11.34;75.75;99264.95;111318;1202;61854;-22
2021/08/23 01:42:34;;;;;;;3.80;2.00;;;;;;;11.33;75.39;99262.64;111195;1202;61407;-23
2021/08/23 01:45:02;;;;;;;3.00;1.90;;;;;;;11.20;76.23;99267.63;111315;1201;73980;-22
2021/08/23 01:47:30;;;;;;;3.10;2.00;;;;;;;10.91;77.34;99267.53;111280;1201;74607;-22
2021/08/23 01:49:58;;;;;;;2.80;2.30;;;;;;;10.57;79.52;99269.64;111330;1202;71674;-22
2021/08/23 01:52:27;;;;;;;1.40;1.10;;;;;;;10.35;80.50;99265.08;111162;1201;62131;-22
2021/08/23 01:54:55;;;;;;;1.60;1.20;;;;;;;10.84;78.48;99263.29;111183;1201;61855;-22
2021/08/23 01:57:23;;;;;;;6.00;2.40;;;;;;;11.42;76.61;99258.41;111322;1201;73077;-23
2021/08/23 01:59:51;;;;;;;2.90;2.10;;;;;;;11.48;76.46;99256.50;111144;1202;75534;-22
2021/08/23 02:02:20;;;;;;;3.90;2.80;;;;;;;11.32;77.10;99255.34;111259;1202;73345;-22
2021/08/23 02:04:48;;;;;;;2.80;2.00;;;;;;;11.11;77.65;99255.17;111170;1195;61652;-22
2021/08/23 02:07:16;;;;;;;3.40;2.40;;;;;;;10.84;77.73;99253.98;111169;1202;60915;-22
2021/08/23 02:09:45;;;;;;;2.80;1.40;;;;;;;10.64;78.14;99255.73;111288;1201;74932;-23
2021/08/23 02:12:14;;;;;;;1.80;1.30;;;;;;;11.07;76.87;99249.92;111218;1196;72512;-22
2021/08/23 02:14:42;;;;;;;3.90;2.10;;;;;;;11.57;75.65;99245.55;111231;1201;74043;-22
2021/08/23 02:17:10;;;;;;;2.90;1.90;;;;;;;11.61;75.81;99243.14;111268;1202;60872;-22
2021/08/23 02:19:39;;;;;;;3.10;1.80;;;;;;;11.45;75.58;99241.46;111318;1201;60771;-22
2021/08/23 02:22:07;;;;;;;2.90;2.20;;;;;;;11.24;75.63;99242.83;111258;1201;74070;-22
2021/08/23 02:24:35;;;;;;;2.80;2.20;;;;;;;10.99;75.99;99246.40;111311;1201;75629;-22
2021/08/23 02:27:04;;;;;;;2.10;1.40;;;;;;;10.77;76.70;99250.20;111260;1201;73764;-20
2021/08/23 02:29:32;;;;;;;5.40;2.10;;;;;;;11.23;76.88;99250.53;111079;1200;61233;-20
2021/08/23 02:32:00;;;;;;;4.00;2.50;;;;;;;11.78;75.26;99246.95;111193;1202;60855;-21
2021/08/23 02:34:29;;;;;;;4.50;2.20;;;;;;;11.82;75.03;99249.56;111122;1202;74273;-22
2021/08/23 02:36:57;;;;;;;2.90;2.20;;;;;;;11.63;75.08;99247.65;111110;1202;75599;-22
2021/08/23 02:39:25;;;;;;;3.00;2.20;;;;;;;11.37;75.20;99250.81;111132;1202;73306;-22
2021/08/23 02:41:54;;;;;;;6.20;2.50;;;;;;;11.09;75.94;99253.60;111162;1202;60839;-24
2021/08/23 02:44:23;;;;;;;2.70;2.00;;;;;;;10.84;76.82;99254.64;111232;1195;60886;-23
2021/08/23 02:46:51;;;;;;;2.70;1.70;;;;;;;11.24;75.92;99254.60;111256;1201;75023;-23
2021/08/23 02:49:19;;;;;;;3.30;2.10;;;;;;;11.70;73.70;99256.27;111238;1201;75341;-23
2021/08/23 02:51:47;;;;;;;9.10;2.50;;;;;;;11.67;73.50;99259.65;111150;1201;73105;-23
2021/08/23 02:54:16;;;;;;;2.50;1.80;;;;;;;11.42;73.99;99264.31;111212;1202;61673;-23
2021/08/23 02:56:45;;;;;;;3.00;2.40;;;;;;;11.10;74.68;99266.86;111297;1202;60861;-23
2021/08/23 02:59:13;;;;;;;4.40;2.60;;;;;;;10.83;76.24;99268.33;111213;1201;75288;-23
2021/08/23 03:01:41;;;;;;;3.00;1.60;;;;;;;10.58;76.09;99267.94;111107;1202;75465;-24
2021/08/23 03:04:09;;;;;;;2.90;1.50;;;;;;;10.91;74.99;99262.48;111232;1201;74299;-23
2021/08/23 03:06:44;;;;;;;5.20;3.00;;;;;;;11.33;74.03;99260.88;111225;1201;60887;-23
2021/08/23 03:09:12;;;;;;;5.20;2.80;;;;;;;11.06;75.58;99266.52;111243;1201;60984;-23
2021/08/23 03:11:41;;;;;;;4.60;2.30;;;;;;;10.78;75.33;99270.80;111133;1201;73291;-23
2021/08/23 03:14:09;;;;;;;3.70;2.30;;;;;;;10.49;75.82;99270.08;111238;1201;74512;-23
2021/08/23 03:16:37;;;;;;;3.60;2.60;;;;;;;10.20;76.10;99270.16;111085;1201;74472;-23
2021/08/23 03:19:06;;;;;;;3.50;1.50;;;;;;;9.92;76.95;99275.21;111131;1201;62484;-23
2021/08/23 03:21:35;;;;;;;2.50;2.00;;;;;;;10.32;76.61;99275.48;111183;1202;60906;-22
2021/08/23 03:24:04;;;;;;;4.00;2.30;;;;;;;10.85;75.35;99275.39;111242;1202;74357;-22
2021/08/23 03:26:32;;;;;;;3.80;2.40;;;;;;;10.93;74.91;99274.98;111268;1201;74195;-23
2021/08/23 03:29:01;;;;;;;2.90;2.50;;;;;;;10.75;75.02;99277.79;111220;1201;73931;-21
2021/08/23 03:31:31;;;;;;;3.60;3.00;;;;;;;10.49;75.69;99282.55;111136;1202;60917;-22
2021/08/23 03:33:59;;;;;;;3.30;2.50;;;;;;;10.22;75.94;99286.09;111283;1201;61646;-22
2021/08/23 03:36:28;;;;;;;6.00;1.60;;;;;;;10.02;77.03;99290.10;111285;1201;75167;-22
2021/08/23 03:38:56;;;;;;;3.00;1.80;;;;;;;10.50;76.31;99292.71;111202;1201;75798;-22
2021/08/23 03:41:25;;;;;;;9.20;2.60;;;;;;;11.09;75.01;99296.42;111141;1195;73295;-20
2021/08/23 03:43:54;;;;;;;2.90;2.20;;;;;;;11.18;74.71;99293.36;111193;1202;60932;-22
2021/08/23 03:46:22;;;;;;;4.60;2.80;;;;;;;11.06;75.00;99296.39;111163;1201;60848;-23
2021/08/23 03:48:51;;;;;;;8.30;3.50;;;;;;;10.90;75.14;99301.06;111163;1201;75142;-23
2021/08/23 03:51:20;;;;;;;8.70;3.80;;;;;;;10.74;75.62;99303.85;111047;1201;75507;-24
2021/08/23 03:53:48;;;;;;;6.00;2.50;;;;;;;10.70;76.14;99303.15;111137;1202;74227;-24
2021/08/23 03:56:16;;;;;;;8.50;3.50;;;;;;;11.37;75.61;99298.89;111200;1202;60858;-23
2021/08/23 03:58:45;;;;;;;9.10;4.50;;;;;;;12.21;73.70;99298.69;111193;1201;60874;-24
2021/08/23 04:01:13;;;;;;;15.30;5.70;;;;;;;12.55;72.01;99299.73;111198;1201;75201;-23
2021/08/23 04:03:42;;;;;;;9.70;4.20;;;;;;;12.57;72.11;99300.04;111205;1201;77065;-22
2021/08/23 04:06:11;;;;;;;12.80;5.10;;;;;;;12.52;72.33;99296.14;111188;1201;74395;-21
2021/08/23 04:08:40;;;;;;;9.30;5.30;;;;;;;12.38;72.55;99295.42;111253;1202;60854;-22
2021/08/23 04:11:15;;;;;;;7.40;3.20;;;;;;;12.29;73.44;99292.51;111302;1195;60934;-22
2021/08/23 04:13:43;;;;;;;6.80;3.50;;;;;;;12.97;72.86;99292.47;111165;1202;74092;-22
2021/08/23 04:16:13;;;;;;;9.60;5.10;;;;;;;13.80;69.77;99289.60;111231;1201;74515;-22
2021/08/23 04:18:42;;;;;;;13.60;7.10;;;;;;;14.12;68.88;99286.89;111151;1196;72624;-22
2021/08/23 04:21:10;;;;;;;17.70;10.20;;;;;;;14.08;69.33;99289.75;111155;1202;61114;-22
2021/08/23 04:23:38;;;;;;;16.40;11.60;;;;;;;14.09;70.05;99282.98;111186;1201;60797;-22
2021/08/23 04:26:07;;;;;;;21.20;13.80;;;;;;;14.12;69.79;99287.02;111198;1201;74206;-22
2021/08/23 04:28:36;;;;;;;23.10;13.20;;;;;;;14.06;70.07;99285.52;111294;1201;76130;-22
2021/08/23 04:31:04;;;;;;;26.90;9.40;;;;;;;13.96;70.46;99285.04;111170;1201;74017;-22
2021/08/23 04:33:32;;;;;;;31.80;19.20;;;;;;;14.17;70.48;99286.46;111241;1201;60858;-22
2021/08/23 04:36:01;;;;;;;30.10;15.90;;;;;;;14.35;69.98;99285.14;111144;1196;60916;-22
2021/08/23 04:38:30;;;;;;;22.50;13.00;;;;;;;13.75;72.37;99280.51;111239;1201;75167;-22
2021/08/23 04:40:58;;;;;;;18.90;10.40;;;;;;;13.11;75.74;99277.96;111192;1202;75580;-22
2021/08/23 04:43:26;;;;;;;26.00;16.20;;;;;;;12.99;77.04;99277.77;111158;1201;72783;-22
2021/08/23 04:45:55;;;;;;;22.30;15.50;;;;;;;13.05;77.59;99280.55;111203;1201;61869;-22
2021/08/23 04:48:24;;;;;;;16.10;11.60;;;;;;;13.01;77.95;99280.07;111181;1202;60858;-22
2021/08/23 04:50:53;;;;;;;17.70;9.80;;;;;;;13.57;76.79;99278.10;111246;1201;74977;-22
2021/08/23 04:53:22;;;;;;;19.20;12.40;;;;;;;14.19;74.43;99279.85;111247;1201;75570;-22
2021/08/23 04:55:50;;;;;;;23.70;17.90;;;;;;;14.29;74.42;99276.74;111245;1201;73731;-22
2021/08/23 04:58:19;;;;;;;12.30;9.80;;;;;;;14.77;73.17;99272.72;111124;1201;60949;-22
2021/08/23 05:00:47;;;;;;;11.70;8.80;;;;;;;14.38;74.46;99269.50;111222;1201;60820;-22
2021/08/23 05:03:16;;;;;;;19.40;10.80;;;;;;;14.47;75.18;99266.78;111288;1201;73906;-22
2021/08/23 05:05:44;;;;;;;7.10;4.50;;;;;;;15.08;73.09;99265.19;111235;1201;77043;-21
2021/08/23 05:08:12;;;;;;;9.80;6.20;;;;;;;15.90;70.98;99262.82;111110;1195;73155;-21
2021/08/23 05:10:48;;;;;;;9.40;6.90;;;;;;;16.64;69.00;99266.55;111134;1201;60903;-21
2021/08/23 05:13:17;;;;;;;11.30;7.80;;;;;;;16.86;68.01;99266.95;111118;1194;60889;-19
2021/08/23 05:15:45;;;;;;;11.40;7.20;;;;;;;16.86;67.59;99265.57;111153;1201;76629;-23
2021/08/23 05:18:14;;;;;;;12.80;8.30;;;;;;;16.66;68.07;99270.68;111162;1201;75563;-23
2021/08/23 05:20:42;;;;;;;12.60;7.30;;;;;;;16.55;68.70;99274.48;111187;1201;74179;-23
2021/08/23 05:23:10;;;;;;;11.00;7.40;;;;;;;16.58;69.74;99273.33;111099;1202;60889;-23
2021/08/23 05:25:39;;;;;;;19.60;9.70;;;;;;;16.73;69.96;99269.27;111228;1201;60865;-23
2021/08/23 05:28:07;;;;;;;12.00;6.90;;;;;;;17.43;68.38;99267.40;111211;1201;75173;-22
2021/08/23 05:30:35;;;;;;;8.40;5.30;;;;;;;18.29;66.40;99270.41;111191;1201;75592;-23
2021/08/23 05:33:04;;;;;;;6.40;4.10;;;;;;;18.72;64.74;99269.48;111239;1202;73950;-22
2021/08/23 05:35:32;;;;;;;6.50;4.10;;;;;;;18.74;63.06;99268.08;111149;1201;60874;-22
2021/08/23 05:38:00;;;;;;;9.50;5.60;;;;;;;18.43;62.95;99267.58;111216;1201;61461;-22
2021/08/23 05:40:32;;;;;;;9.60;5.00;;;;;;;18.25;63.84;99266.04;111214;1201;74187;-22
2021/08/23 05:43:05;;;;;;;5.90;4.10;;;;;;;18.32;63.47;99268.84;111240;1201;75593;-22
2021/08/23 05:45:34;;;;;;;4.00;3.30;;;;;;;18.09;63.50;99274.45;111132;1202;73970;-22
2021/08/23 05:48:03;;;;;;;6.90;4.20;;;;;;;18.08;63.45;99279.52;111233;1201;60854;-22
2021/08/23 05:50:31;;;;;;;5.70;4.20;;;;;;;18.07;64.12;99287.91;111302;1201;60929;-23
2021/08/23 05:53:00;;;;;;;5.50;4.20;;;;;;;18.10;63.85;99286.27;111300;1201;74798;-21
2021/08/23 05:55:28;;;;;;;5.90;3.50;;;;;;;18.10;63.97;99291.77;111243;1201;74588;-21
2021/08/23 05:57:56;;;;;;;4.40;3.30;;;;;;;18.46;62.70;99293.30;111283;1201;72939;-21
2021/08/23 06:00:24;;;;;;;4.40;3.70;;;;;;;18.93;60.76;99295.49;111191;1201;60960;-21
2021/08/23 06:02:53;;;;;;;4.80;3.00;;;;;;;19.00;60.15;99304.69;111233;1201;60858;-21
2021/08/23 06:05:22;;;;;;;8.60;3.60;;;;;;;18.95;61.04;99305.46;111148;1202;74385;-21
2021/08/23 06:08:06;;;;;;;9.10;4.60;;;;;;;18.87;60.87;99304.06;111217;1201;75684;-21
2021/08/23 06:10:34;;;;;;;5.90;3.80;;;;;;;18.83;61.15;99306.78;111143;1195;74270;-21
2021/08/23 06:13:02;;;;;;;7.20;3.90;;;;;;;18.59;61.39;99311.83;111211;1201;61435;-21
2021/08/23 06:15:30;;;;;;;9.20;4.20;;;;;;;18.47;62.07;99312.86;111169;1201;61319;-21
2021/08/23 06:17:59;;;;;;;5.50;4.20;;;;;;;18.43;61.84;99309.05;111312;1201;75102;-21
2021/08/23 06:20:27;;;;;;;7.60;4.70;;;;;;;18.27;63.48;99304.48;111296;1201;74447;-21
2021/08/23 06:22:55;;;;;;;8.10;4.30;;;;;;;18.38;62.71;99307.13;111276;1201;72984;-21
2021/08/23 06:25:24;;;;;;;6.90;4.10;;;;;;;18.50;62.79;99312.55;111143;1201;60874;-21
2021/08/23 06:27:52;;;;;;;8.00;5.90;;;;;;;18.49;62.12;99312.48;111240;1201;60874;-21
2021/08/23 06:30:22;;;;;;;5.80;5.00;;;;;;;18.51;62.58;99303.78;111247;1201;72459;-21
2021/08/23 06:32:50;;;;;;;7.00;5.40;;;;;;;18.13;63.64;99301.29;111194;1202;75534;-21
2021/08/23 06:35:18;;;;;;;9.30;5.50;;;;;;;18.22;63.64;99299.63;111222;1201;74086;-21
2021/08/23 06:37:47;;;;;;;9.00;5.50;;;;;;;18.50;63.58;99303.68;111284;1201;61902;-21
2021/08/23 06:40:15;;;;;;;5.80;4.50;;;;;;;18.52;63.24;99303.51;111266;1201;60811;-21
2021/08/23 06:42:44;;;;;;;6.90;5.10;;;;;;;18.34;63.91;99306.51;111272;1201;75097;-21
2021/08/23 06:45:12;;;;;;;4.10;3.10;;;;;;;18.46;64.35;99306.96;111233;1202;74377;-21
2021/08/23 06:47:43;;;;;;;4.60;3.10;;;;;;;19.36;62.45;99303.88;111302;1201;72589;-22
2021/08/23 06:50:11;;;;;;;6.20;3.70;;;;;;;20.09;60.13;99301.87;111216;1201;60804;-20
2021/08/23 06:52:40;;;;;;;10.10;5.40;;;;;;;20.14;59.44;99302.67;111284;1201;60802;-22
2021/08/23 06:55:08;;;;;;;7.40;4.80;;;;;;;19.26;61.67;99307.77;111317;1201;73880;-24
2021/08/23 06:57:37;;;;;;;5.50;4.10;;;;;;;19.47;61.08;99308.73;111282;1201;74552;-21
2021/08/23 07:00:06;;;;;;;4.80;4.10;;;;;;;19.65;61.18;99312.43;111302;1201;71773;-20
2021/08/23 07:02:34;;;;;;;7.30;5.50;;;;;;;20.10;59.52;99314.56;111201;1196;61816;-21
2021/08/23 07:05:03;;;;;;;12.70;4.90;;;;;;;19.27;61.64;99325.30;111237;1201;60833;-24
2021/08/23 07:07:33;;;;;;;10.70;6.50;;;;;;;19.59;61.99;99323.30;111051;1195;74465;-25
2021/08/23 07:10:01;;;;;;;6.50;5.20;;;;;;;19.90;60.93;99321.63;111163;1201;75711;-22
2021/08/23 07:12:32;;;;;;;9.40;5.10;;;;;;;19.77;61.27;99326.84;111114;1201;73191;-22
2021/08/23 07:15:02;;;;;;;10.70;5.30;;;;;;;19.82;61.14;99320.60;111116;1202;60875;-22
2021/08/23 07:17:30;;;;;;;9.60;7.00;;;;;;;19.52;61.80;99326.15;111244;1201;60916;-23
2021/08/23 07:19:58;;;;;;;10.40;6.50;;;;;;;19.54;63.02;99329.23;111251;1202;75161;-23
2021/08/23 07:22:26;;;;;;;10.60;8.00;;;;;;;19.47;62.98;99334.98;111229;1201;75719;-23
2021/08/23 07:24:55;;;;;;;11.60;6.30;;;;;;;18.52;65.12;99335.65;111180;1201;73489;-23
2021/08/23 07:27:23;;;;;;;7.20;5.50;;;;;;;18.79;65.34;99333.40;111152;1195;60841;-22
2021/08/23 07:29:51;;;;;;;8.30;5.40;;;;;;;18.83;64.92;99331.24;111212;1201;61884;-23
2021/08/23 07:32:20;;;;;;;6.00;3.40;;;;;;;19.45;63.50;99320.75;111277;1202;74271;-22
2021/08/23 07:34:48;;;;;;;6.50;4.30;;;;;;;20.08;61.57;99318.13;111237;1201;75933;-22
2021/08/23 07:37:17;;;;;;;7.60;4.30;;;;;;;21.06;59.60;99316.23;111243;1201;71541;-22
2021/08/23 07:39:45;;;;;;;4.30;3.50;;;;;;;21.59;57.85;99309.26;111237;1201;60795;-22
2021/08/23 07:42:14;;;;;;;7.30;3.70;;;;;;;21.51;57.02;99302.81;111187;1195;60915;-22
2021/08/23 07:44:42;;;;;;;7.40;4.90;;;;;;;21.75;57.10;99294.76;111153;1201;74309;-22
2021/08/23 07:47:11;;;;;;;8.10;5.00;;;;;;;21.25;58.67;99282.43;111202;1201;74740;-23
2021/08/23 07:49:39;;;;;;;7.00;4.50;;;;;;;21.50;57.55;99276.77;111230;1201;73936;-22
2021/08/23 07:52:08;;;;;;;8.60;5.20;;;;;;;21.07;59.53;99269.96;111253;1201;62014;-22
2021/08/23 07:54:37;;;;;;;5.50;2.90;;;;;;;21.48;58.74;99260.64;111271;1201;60974;-22
2021/08/23 07:57:06;;;;;;;7.10;4.60;;;;;;;22.01;56.80;99268.27;111257;1201;75083;-22
2021/08/23 07:59:34;;;;;;;6.60;4.50;;;;;;;21.67;57.27;99272.99;111286;1201;75311;-22
2021/08/23 08:02:03;;;;;;;5.00;3.90;;;;;;;21.15;58.43;99267.44;111173;1195;72851;-22
2021/08/23 08:04:31;;;;;;;5.40;4.20;;;;;;;21.06;59.15;99258.92;111224;1201;60801;-22
2021/08/23 08:06:59;;;;;;;6.30;3.30;;;;;;;21.48;58.43;99256.04;111243;1201;60845;-22
2021/08/23 08:09:28;;;;;;;3.90;2.80;;;;;;;21.99;56.24;99259.77;111252;1201;74222;-21
2021/08/23 08:11:56;;;;;;;7.50;3.20;;;;;;;22.09;55.99;99259.34;111259;1201;74997;-21
2021/08/23 08:14:26;;;;;;;6.00;3.50;;;;;;;22.16;57.20;99261.25;111230;1201;72583;-21
2021/08/23 08:16:57;;;;;;;4.80;3.00;;;;;;;22.44;55.55;99260.14;111320;1202;60885;-21
2021/08/23 08:19:25;;;;;;;4.40;3.30;;;;;;;22.44;55.40;99258.31;111136;1195;61010;-21
2021/08/23 08:21:53;;;;;;;4.30;2.80;;;;;;;22.52;54.85;99258.45;111223;1201;75394;-21
2021/08/23 08:24:21;;;;;;;5.80;3.00;;;;;;;22.50;54.98;99262.42;111240;1201;75688;-21
2021/08/23 08:26:50;;;;;;;6.60;3.20;;;;;;;22.36;55.27;99263.11;111250;1201;72946;-21
2021/08/23 08:29:18;;;;;;;2.60;2.30;;;;;;;22.81;54.72;99264.69;111223;1201;61602;-21
2021/08/23 08:31:46;;;;;;;16.50;3.60;;;;;;;23.18;53.76;99266.25;111129;1202;60953;-21
2021/08/23 08:34:15;;;;;;;8.90;3.90;;;;;;;23.52;53.61;99264.65;111161;1202;74805;-21
2021/08/23 08:36:44;;;;;;;6.50;2.70;;;;;;;23.63;52.29;99268.28;111261;1201;75555;-21
2021/08/23 08:39:12;;;;;;;2.70;2.40;;;;;;;23.82;51.55;99269.13;111229;1201;73083;-22
2021/08/23 08:41:41;;;;;;;6.20;3.00;;;;;;;23.88;50.00;99269.06;111264;1201;60842;-21
2021/08/23 08:44:09;;;;;;;4.00;2.90;;;;;;;23.80;49.95;99269.79;111219;1201;61475;-21
2021/08/23 08:46:38;;;;;;;3.70;2.40;;;;;;;23.74;50.57;99273.59;111202;1201;74984;-21
2021/08/23 08:49:11;;;;;;;4.60;2.60;;;;;;;23.85;50.25;99274.08;111219;1201;74527;-21
2021/08/23 08:51:39;;;;;;;5.20;3.50;;;;;;;23.42;50.11;99274.25;111144;1202;74384;-23
2021/08/23 08:54:09;;;;;;;3.60;2.50;;;;;;;23.56;50.88;99269.80;111198;1201;61666;-21
2021/08/23 08:56:38;;;;;;;5.10;2.90;;;;;;;23.63;50.15;99269.43;111264;1201;60881;-21
2021/08/23 08:59:07;;;;;;;5.20;3.00;;;;;;;23.51;51.30;99266.90;111255;1201;75136;-21
2021/08/23 09:01:35;;;;;;;6.50;3.00;;;;;;;23.59;51.48;99268.55;111260;1201;75347;-21
2021/08/23 09:04:05;;;;;;;4.60;2.90;;;;;;;23.69;51.98;99274.79;111258;1201;72915;-20
2021/08/23 09:06:53;;;;;;;5.40;3.50;;;;;;;23.44;51.32;99275.77;111136;1202;60878;-21
2021/08/23 09:09:22;;;;;;;3.70;3.00;;;;;;;23.31;52.02;99286.52;111201;1196;61885;-22
2021/08/23 09:12:05;;;;;;;5.60;3.80;;;;;;;23.25;52.52;99284.13;111211;1201;75027;-20
2021/08/23 09:14:39;;;;;;;5.70;3.40;;;;;;;23.25;52.38;99280.91;111135;1201;74197;-20
2021/08/23 09:17:09;;;;;;;4.50;3.20;;;;;;;23.26;52.71;99278.66;111056;1195;74037;-22
2021/08/23 09:19:40;;;;;;;5.40;3.60;;;;;;;23.23;52.65;99278.31;111050;1201;60864;-23
2021/08/23 09:22:16;;;;;;;3.50;3.00;;;;;;;23.16;53.32;99275.77;111072;1196;60960;-23
2021/08/23 09:24:44;;;;;;;6.10;3.60;;;;;;;23.13;53.75;99273.46;111043;1196;74285;-23
2021/08/23 09:27:13;;;;;;;6.40;3.20;;;;;;;23.08;55.00;99274.42;111062;1202;75616;-23
2021/08/23 09:29:54;;;;;;;5.60;3.30;;;;;;;23.12;53.75;99273.79;111165;1202;73115;-22
2021/08/23 09:32:28;;;;;;;4.70;3.00;;;;;;;23.14;53.84;99275.80;111208;1201;60912;-23
2021/08/23 09:34:56;;;;;;;8.90;3.10;;;;;;;23.12;53.33;99277.47;111172;1201;61028;-22
2021/08/23 09:37:29;;;;;;;5.20;3.50;;;;;;;23.07;53.72;99276.02;111125;1195;74269;-22
2021/08/23 09:40:11;;;;;;;4.20;3.50;;;;;;;23.13;53.52;99273.75;111109;1196;75016;-23
2021/08/23 09:42:39;;;;;;;7.80;3.40;;;;;;;23.01;53.73;99274.41;111137;1201;72937;-22
2021/08/23 09:45:17;;;;;;;4.20;3.00;;;;;;;23.20;53.79;99272.21;111203;1201;60885;-23
2021/08/23 09:47:45;;;;;;;4.90;3.20;;;;;;;23.38;52.41;99269.23;111177;1202;61737;-24
2021/08/23 09:50:17;;;;;;;5.00;2.90;;;;;;;23.44;52.16;99268.89;111268;1202;75109;-23
2021/08/23 09:52:46;;;;;;;5.20;3.00;;;;;;;23.46;53.58;99262.60;111160;1202;75389;-23
2021/08/23 09:55:14;;;;;;;7.50;3.40;;;;;;;23.57;52.58;99257.98;111126;1202;74032;-22
2021/08/23 09:57:43;;;;;;;7.10;4.00;;;;;;;23.61;51.45;99257.17;111255;1201;61510;-22
2021/08/23 10:00:12;;;;;;;6.30;3.90;;;;;;;23.55;51.25;99260.20;111245;1201;61003;-22
2021/08/23 10:02:46;;;;;;;5.80;3.80;;;;;;;23.49;51.04;99261.38;111265;1201;75334;-22
2021/08/23 10:05:16;;;;;;;8.70;3.70;;;;;;;23.33;51.26;99267.35;111156;1202;75550;-22
2021/08/23 10:07:44;;;;;;;5.40;3.80;;;;;;;23.00;52.01;99269.83;111120;1202;73828;-22
2021/08/23 10:10:13;;;;;;;4.70;3.10;;;;;;;23.08;52.06;99269.82;111275;1201;61698;-22
2021/08/23 10:12:41;;;;;;;4.00;3.00;;;;;;;23.10;51.44;99271.05;111234;1202;60852;-22
2021/08/23 10:15:09;;;;;;;4.00;3.20;;;;;;;23.20;52.19;99266.66;111242;1201;74107;-21
2021/08/23 10:17:44;;;;;;;5.50;3.10;;;;;;;23.10;51.67;99263.73;111197;1201;74661;-22
2021/08/23 10:20:13;;;;;;;24.20;13.10;;;;;;;23.09;52.36;99260.71;111246;1202;72700;-22
2021/08/23 10:22:41;;;;;;;8.00;5.00;;;;;;;22.88;51.86;99258.47;111278;1201;61399;-23
2021/08/23 10:25:10;;;;;;;7.50;4.20;;;;;;;22.71;52.21;99255.35;111173;1201;60858;-22
2021/08/23 10:27:41;;;;;;;7.50;4.10;;;;;;;22.66;53.08;99254.36;111275;1201;73787;-24
2021/08/23 10:30:21;;;;;;;6.30;3.50;;;;;;;22.47;53.56;99256.61;111210;1201;75640;-22
2021/08/23 10:32:49;;;;;;;7.30;3.90;;;;;;;22.50;54.53;99261.41;111119;1202;74011;-23
2021/08/23 10:35:28;;;;;;;4.40;3.10;;;;;;;22.56;54.14;99256.92;111119;1201;61329;-22
2021/08/23 10:37:56;;;;;;;7.80;2.80;;;;;;;22.63;53.35;99254.02;111174;1202;60952;-23
2021/08/23 10:40:33;;;;;;;4.70;3.20;;;;;;;22.73;52.95;99255.84;111258;1201;74098;-20
2021/08/23 10:43:16;;;;;;;3.70;2.80;;;;;;;22.87;53.25;99252.30;111108;1201;74421;-21
2021/08/23 10:45:45;;;;;;;3.50;2.80;;;;;;;22.99;52.12;99257.37;111182;1202;73763;-21
2021/08/23 10:48:17;;;;;;;3.60;2.70;;;;;;;23.05;52.00;99261.39;111176;1195;60907;-21
2021/08/23 10:51:03;;;;;;;4.30;2.70;;;;;;;23.06;51.30;99263.72;111144;1196;61441;-23
2021/08/23 10:53:35;;;;;;;7.10;2.90;;;;;;;23.01;51.07;99266.93;111175;1195;75202;-22
2021/08/23 10:56:24;;;;;;;6.00;3.00;;;;;;;23.06;51.46;99267.48;111144;1202;75591;-23
2021/08/23 10:58:53;;;;;;;5.80;2.70;;;;;;;23.08;50.59;99268.34;111116;1202;72028;-21
2021/08/23 11:01:22;;;;;;;4.20;2.60;;;;;;;23.04;51.18;99269.11;111238;1201;60867;-21
2021/08/23 11:04:00;;;;;;;3.20;2.30;;;;;;;23.07;50.61;99270.05;111148;1195;60914;-22
2021/08/23 11:06:28;;;;;;;3.00;2.60;;;;;;;23.08;50.58;99270.22;111131;1202;75049;-21
2021/08/23 11:09:10;;;;;;;3.40;2.40;;;;;;;23.15;49.98;99265.62;111282;1201;74556;-21
2021/08/23 11:11:39;;;;;;;3.70;2.80;;;;;;;23.22;48.53;99260.95;110979;1202;74180;-21
2021/08/23 11:14:18;;;;;;;4.60;3.30;;;;;;;23.27;47.91;99259.61;111202;1201;60945;-21
2021/08/23 11:16:53;;;;;;;5.00;3.40;;;;;;;23.33;48.58;99256.35;111145;1201;60787;-21
2021/08/23 11:19:22;;;;;;;4.30;3.10;;;;;;;23.13;47.18;99264.43;111146;1201;75271;-21
2021/08/23 11:21:58;;;;;;;3.50;2.50;;;;;;;23.26;48.57;99260.52;111170;1202;75654;-20
2021/08/23 11:24:27;;;;;;;4.00;2.40;;;;;;;23.46;48.00;99260.89;111151;1202;73371;-22
2021/08/23 11:27:03;;;;;;;4.80;3.20;;;;;;;23.50;48.13;99260.15;111122;1201;61738;-23
2021/08/23 11:29:33;;;;;;;4.80;2.90;;;;;;;23.46;46.63;99256.27;111119;1201;61673;-23
2021/08/23 11:32:05;;;;;;;4.50;3.00;;;;;;;23.47;46.87;99255.70;111103;1202;74561;-23
2021/08/23 11:34:34;;;;;;;4.00;2.90;;;;;;;23.49;47.35;99249.08;111101;1202;75591;-23
2021/08/23 11:37:04;;;;;;;3.70;3.30;;;;;;;23.52;45.81;99244.98;111148;1194;72603;-23